Avalon School, Santa Catalina Island Weather observations

Data are for 10 minute period ending at time listed.
 Day   Time   Solar   Ave.   Ave.  Ave.  Vector    Max.   Stn.    Total
  of    of     Rad.   Air    Rel.  Wind   Wind     Wind   Baro.  Precip.
Year   Day            Temp.  Hum.  Speed  Dir.     Gust   Pres.         
2016   (PST)   W/m2    F      %     mph   deg.      mph    mb.     in.  
------------------------------------------------------------------------
 242    0:00    0.0    63   90.8     0    264.9     1.8    999.0   0.00  
 242    0:10    0.0    63   90.5     0    240.0     1.2    999.0   0.00  
 242    0:20    0.0    63   89.9     0      0.0     0.0    999.0   0.00  
 242    0:30    0.0    63   89.8     0      0.0     0.0    999.0   0.00  
 242    0:40    0.0    63   89.7     0      0.0     0.0    999.0   0.00  
 242    0:50    0.0    63   89.7     0    272.4     2.4    999.0   0.00  
 242    1:00    0.0    64   88.0     1    268.3     3.6    999.0   0.00  
 242    1:10    0.0    63   87.6     0      0.0     0.0    999.0   0.00  
 242    1:20    0.0    63   88.0     0    270.6     1.8    999.0   0.00  
 242    1:30    0.0    63   88.1     0    248.0     2.4    999.0   0.00  
 242    1:40    0.0    64   87.5     1    249.3     3.0    999.0   0.00  
 242    1:50    0.0    64   87.8     0    266.3     1.8    999.0   0.00  
 242    2:00    0.0    64   88.1     0    117.3     2.4    999.0   0.00  
 242    2:10    0.0    63   88.6     0    267.9     3.0    999.0   0.00  
 242    2:20    0.0    63   88.6     1    249.1     3.0    999.0   0.00  
 242    2:30    0.0    63   88.9     0    238.2     1.2    999.0   0.00  
 242    2:40    0.0    63   89.2     0    260.6     1.8    999.0   0.00  
 242    2:50    0.0    64   89.4     0    257.5     2.4    999.0   0.00  
 242    3:00    0.0    64   89.3     1    261.9     1.8    999.0   0.00  
 242    3:10    0.0    64   89.2     0    262.8     1.8    999.0   0.00  
 242    3:20    0.0    64   89.4     0      0.0     0.0    999.0   0.00  
 242    3:30    0.0    64   89.8     0    314.7     1.2    999.0   0.00  
 242    3:40    0.0    64   90.2     0      0.0     0.0    999.0   0.00  
 242    3:50    0.0    64   90.7     0      0.0     0.0    999.0   0.00  
 242    4:00    0.0    64   91.1     0      0.0     0.0    999.0   0.00  
 242    4:10    0.0    63   91.2     0      0.0     0.0    999.0   0.00  
 242    4:20    0.0    63   91.5     0      0.0     0.0    999.0   0.00  
 242    4:30    0.0    63   91.8     0      0.0     0.0    999.0   0.00  
 242    4:40    0.0    63   91.9     0      0.0     0.0    999.0   0.00  
 242    4:50    0.0    63   92.0     0      0.0     0.0    999.0   0.00  
 242    5:00    0.0    64   92.0     0    245.8     1.2    999.0   0.00  
 242    5:10    0.0    65   92.2     0      0.0     0.0    999.0   0.00  
 242    5:20    1.0    65   92.3     0    269.5     1.2    999.0   0.00  
 242    5:30    3.0    65   92.4     0      0.0     0.0    999.0   0.00  
 242    5:40    7.0    65   92.6     0    235.3     1.2    999.0   0.00  
 242    5:50   12.0    65   92.8     0    215.4     1.2    999.0   0.00  
 242    6:00   21.0    66   92.8     0      0.0     0.0    999.0   0.00  
 242    6:10   35.0    66   92.9     0    211.3     1.8    999.0   0.00  
 242    6:20   57.0    67   92.8     1    193.4     3.0    999.0   0.00  
 242    6:30   82.0    68   92.0     1    169.7     3.6    999.0   0.00  
 242    6:40  135.0    69   90.7     2    165.0     3.6    999.0   0.00  
 242    6:50  158.0    70   88.4     2    158.4     4.2    999.0   0.00  
 242    7:00  188.0    71   86.4     3    106.1     4.8    999.0   0.00  
 242    7:10  192.0    71   85.9     3    117.0     4.2    999.0   0.00  
 242    7:20  266.0    72   85.4     3    121.1     4.8    999.0   0.00  
 242    7:30  267.0    72   85.0     3    106.3     7.8    999.0   0.02  
 242    7:40  312.0    73   84.2     3    114.5     6.6    999.0   0.18  
 242    7:50  336.0    72   84.2     3    100.6     6.0    999.0   0.00  
 242    8:00  359.0    73   83.3     3     79.0     5.4    999.0   0.00  
 242    8:10  383.0    73   82.7     3     95.4     6.6    999.0   0.50  
 242    8:20  410.0    73   82.8     4    108.3     6.6    999.0   0.10  
 242    8:30  437.0    73   82.7     4    103.4     7.2    999.0   0.13  
 242    8:40  464.0    73   82.8     4    107.5     7.8    999.0   0.14  
 242    8:50  487.0    73   82.4     4     89.3     9.0    999.0   0.00  
 242    9:00  510.0    73   83.0     4     98.0     7.8    999.0   0.00  
 242    9:10  533.0    73   83.1     5    112.6     9.0    999.0   0.00  
 242    9:20  555.0    73   83.2     4     90.7     8.4    999.0   0.00  
 242    9:30  576.0    73   82.5     5    107.8     9.0    999.0   0.00  
 242    9:40  596.0    74   81.6     4    107.5     8.4    999.0   0.00  
 242    9:50  615.0    73   82.8     5    104.9     9.6    999.0   0.00  
 242   10:00  633.0    73   83.1     5    104.7     8.4    999.0   0.00  
 242   10:10  650.0    73   82.6     5    113.5     9.0    999.0   0.00  
 242   10:20  666.0    74   81.9     5    104.1     8.4    999.0   0.00  
 242   10:30  681.0    74   82.4     5    104.4     9.0    999.0   0.00  
 242   10:40  694.0    73   83.4     5     96.6     9.6    999.0   0.00  
 242   10:50  705.0    74   83.1     5     96.0    10.2    999.0   0.38  
 242   11:00  715.0    74   82.1     5     95.7     8.4    999.0   0.00  
 242   11:10  725.0    74   81.4     5     97.1     9.0    999.0   0.00  
 242   11:20  732.0    74   82.1     5    112.2     9.6    999.0   0.00  
 242   11:30  739.0    74   81.7     6    125.5    10.8    999.0   0.00  
 242   11:40  744.0    74   81.4     6    116.2    10.2    999.0   0.19  
 242   11:50  748.0    74   81.2     8    122.1    11.9    999.0   0.18  
 242   12:00  749.0    74   82.1     7    124.4    11.3    999.0   0.09  
 242   12:10  749.0    74   81.8     6    131.1    10.8    999.0   0.00  
 242   12:20  748.0    74   82.0     6    112.8     9.6    999.0   0.00  
 242   12:30  745.0    75   81.5     6    121.6     9.6    999.0   0.00  
 242   12:40  740.0    74   82.3     6    102.4     9.0    999.0   0.00  
 242   12:50  733.0    75   81.6     5    101.8     9.6    999.0   0.00  
 242   13:00  723.0    74   82.0     5    103.5     9.6    999.0   0.00  
 242   13:10  714.0    74   81.7     5     93.6     8.4    999.0   0.00  
 242   13:20  703.0    74   81.9     4     84.2     7.8    999.0   0.00  
 242   13:30  691.0    75   80.6     4     95.4     8.4    999.0   0.08  
 242   13:40  675.0    75   80.7     5     89.7     9.0    999.0   0.00  
 242   13:50  660.0    76   80.3     3    125.1     7.8    999.0   0.00  
 242   14:00  644.0    76   79.1     4    327.9     9.6    999.0   0.00  
 242   14:10  626.0    76   79.6     4    293.4     7.2    999.0   0.00  
 242   14:20  607.0    76   78.8     4    272.4     9.0    999.0   0.00  
 242   14:30  588.0    76   79.0     4    277.4     7.8    999.0   0.00  
 242   14:40  566.0    77   78.3     5    263.2     8.4    999.0   0.00  
 242   14:50  544.0    76   79.6     4    278.9     9.6    999.0   0.00  
 242   15:00  521.0    77   78.9     3    256.9     6.6    999.0   0.00  
 242   15:10  497.0    78   76.8     4    133.3     7.2    999.0   0.00  
 242   15:20  472.0    77   78.2     4     98.3     7.2    999.0   0.00  
 242   15:30  445.0    76   80.7     4     88.4     7.8    999.0   0.00  
 242   15:40  418.0    77   78.7     3    129.6     6.0    999.0   0.00  
 242   15:50  392.0    76   80.3     3    286.4     5.4    999.0   0.00  
 242   16:00  363.0    76   79.8     4    295.7     6.0    999.0   0.00  
 242   16:10  334.0    76   80.3     2    254.7     4.8    999.0   0.00  
 242   16:20  305.0    76   80.0     3    131.9     5.4    999.0   0.00  
 242   16:30  273.0    76   81.1     3    117.1     6.6    999.0   0.00  
 242   16:40  243.0    75   82.5     2    114.0     8.4    999.0   0.00  
 242   16:50  211.0    76   81.3     2    358.7     6.0    999.0   0.00  
 242   17:00  180.0    75   81.6     2    249.0     4.8    999.0   0.19  
 242   17:10   44.0    74   83.0     2    278.0     5.4    999.0   0.00  
 242   17:20   34.0    73   85.9     2    257.3     5.4    999.0   0.00  
 242   17:30   29.0    72   86.6     2    248.9     4.2    999.0   0.00  
 242   17:40   24.0    72   87.2     2    264.4     4.8    999.0   0.00  
 242   17:50   20.0    72   87.2     1    199.1     3.0    999.0   0.00  
 242   18:00   16.0    72   87.4     1    256.7     3.0    999.0   0.00  
 242   18:10   11.0    72   87.7     1    293.1     3.0    999.0   0.00  
 242   18:20    6.0    72   87.9     0    190.5     1.8    999.0   0.00  
 242   18:30    3.0    71   88.2     1    258.5     3.0    999.0   0.16  
 242   18:40    1.0    71   88.7     0    248.6     2.4    999.0   1.19  
 242   18:50    0.0    71   89.0     1    243.6     2.4    999.0   0.00  
 242   19:00    0.0    70   89.1     0    263.7     1.2    999.0   0.00  
 242   19:10    0.0    69   89.6     0    262.4     1.2    999.0   0.00  
 242   19:20    0.0    69   90.1     0    261.9     2.4    999.0   0.00  
 242   19:30    0.0    69   90.4     0    260.3     1.8    999.0   0.00  
 242   19:40    0.0    69   90.5     0    257.4     1.8    999.0   0.00  
 242   19:50    0.0    68   90.6     0      0.0     0.0    999.0   0.00  
 242   20:00    0.0    68   90.9     0    216.3     2.4    999.0   0.00  
 242   20:10    0.0    68   91.1     0    261.3     1.8    999.0   0.00  
 242   20:20    0.0    68   91.5     0      0.0     0.0    999.0   0.00  
 242   20:30    0.0    68   91.4     0     73.6     3.0    999.0   0.00  
 242   20:40    0.0    67   91.1     0    226.8     1.2    999.0   0.00  
 242   20:50    0.0    67   91.4     0      0.0     0.0    999.0   0.00  
 242   21:00    0.0    67   91.5     0      0.0     0.0    999.0   0.00  
 242   21:10    0.0    67   91.8     0      0.0     0.0    999.0   0.00  
 242   21:20    0.0    67   92.0     0      0.0     0.0    999.0   0.00  
 242   21:30    0.0    67   92.2     0    156.5     2.4    999.0   0.00  
 242   21:40    0.0    67   92.2     1    243.3     3.0    999.0   0.00  
 242   21:50    0.0    66   92.1     0    256.0     1.2    999.0   0.00  
 242   22:00    0.0    66   92.1     0    271.4     2.4    999.0   0.00  
 242   22:10    0.0    66   91.7     2    258.6     3.0    999.0   0.02  
 242   22:20    0.0    66   91.0     0    255.2     1.2    999.0   0.00  
 242   22:30    0.0    66   90.4     0    262.0     2.4    999.0   0.00  
 242   22:40    0.0    66   88.8     0    257.5     2.4    999.0   0.00  
 242   22:50    0.0    67   87.0     2    264.7     3.6    999.0   0.00  
 242   23:00    0.0    67   84.8     0      0.0     0.0    999.0   0.00  
 242   23:10    0.0    67   85.0     0      0.0     0.0    999.0   0.00  
 242   23:20    0.0    67   85.3     1    265.4     3.0    999.0   0.00  
 242   23:30    0.0    67   85.1     1    264.1     2.4    999.0   0.00  

Return to Avalon School graphs page.


Western Regional Climate Center,wrcc@dri.edu